Time;durP1;ratioP1;P1;durP2;ratioP2;P2;SDS_P1;SDS_P2;PMS_P1;PMS_P2;Temp;Humidity;BMP_temperature;BMP_pressure;BME280_temperature;BME280_humidity;BME280_pressure;Samples;Min_cycle;Max_cycle;Signal;HPM_P1;HPM_P2
2022/06/09 00:00:02;;;;;;;;;;;;;;;12.30;100.00;99067.81;5031615;28;831;-60
2022/06/09 00:02:31;;;;;;;;;;;;;;;12.27;100.00;99063.16;5031676;28;870;-60
2022/06/09 00:04:59;;;;;;;;;;;;;;;12.28;100.00;99066.69;5031506;28;799;-60
2022/06/09 00:07:26;;;;;;;;;;;;;;;12.30;100.00;99076.13;5031629;28;807;-60
2022/06/09 00:09:57;;;;;;;;;;;;;;;12.43;100.00;99063.16;5031520;28;871;-60
2022/06/09 00:12:24;;;;;;;;;;;;;;;12.57;100.00;99069.56;5030807;28;810;-60
2022/06/09 00:14:50;;;;;;;;;;;;;;;12.61;100.00;99070.25;5031414;28;1945;-60
2022/06/09 00:17:17;;;;;;;;;;;;;;;12.52;100.00;99072.84;5031419;28;822;-61
2022/06/09 00:19:44;;;;;;;;;;;;;;;12.40;100.00;99088.19;5031417;28;854;-60
2022/06/09 00:22:10;;;;;;;;;;;;;;;12.35;100.00;99081.16;5031337;28;886;-60
2022/06/09 00:24:37;;;;;;;;;;;;;;;12.40;100.00;99085.41;5031733;28;827;-60
2022/06/09 00:27:04;;;;;;;;;;;;;;;12.45;100.00;99091.22;5031424;28;866;-60
2022/06/09 00:29:30;;;;;;;;;;;;;;;12.46;100.00;99083.69;5031208;28;1177;-60
2022/06/09 00:31:57;;;;;;;;;;;;;;;12.45;100.00;99073.81;5031489;28;898;-60
2022/06/09 00:34:23;;;;;;;;;;;;;;;12.52;100.00;99068.09;5031267;28;1942;-60
2022/06/09 00:36:50;;;;;;;;;;;;;;;12.65;100.00;99065.38;5031270;28;826;-60
2022/06/09 00:39:16;;;;;;;;;;;;;;;12.84;100.00;99070.06;5031348;28;862;-61
2022/06/09 00:41:43;;;;;;;;;;;;;;;13.05;100.00;99065.16;5031275;28;850;-60
2022/06/09 00:44:18;;;;;;;;;;;;;;;13.16;100.00;99062.88;5031247;28;901;-60
2022/06/09 00:46:47;;;;;;;;;;;;;;;13.16;100.00;99059.31;5031415;28;819;-60
2022/06/09 00:49:18;;;;;;;;;;;;;;;13.06;100.00;99061.94;5031107;28;830;-60
2022/06/09 00:51:46;;;;;;;;;;;;;;;12.96;100.00;99063.00;5031232;28;886;-61
2022/06/09 00:54:16;;;;;;;;;;;;;;;12.94;100.00;99059.13;5031108;28;1890;-60
2022/06/09 00:56:46;;;;;;;;;;;;;;;12.97;100.00;99063.78;5031131;28;799;-60
2022/06/09 00:59:14;;;;;;;;;;;;;;;12.97;100.00;99058.25;5031108;28;870;-60
2022/06/09 01:01:41;;;;;;;;;;;;;;;12.95;100.00;99060.66;5031145;28;874;-60
2022/06/09 01:04:10;;;;;;;;;;;;;;;13.04;100.00;99058.84;5031027;28;897;-60
2022/06/09 01:06:45;;;;;;;;;;;;;;;13.10;100.00;99061.06;5013303;28;1512;-61
2022/06/09 01:09:14;;;;;;;;;;;;;;;13.13;100.00;99063.75;5031053;28;807;-60
2022/06/09 01:11:41;;;;;;;;;;;;;;;13.26;100.00;99064.56;5030944;28;866;-61
2022/06/09 01:14:10;;;;;;;;;;;;;;;13.37;100.00;99061.53;5031028;28;1903;-60
2022/06/09 01:16:55;;;;;;;;;;;;;;;13.35;100.00;99060.41;5030897;28;870;-61
2022/06/09 01:19:25;;;;;;;;;;;;;;;13.20;100.00;99065.56;5030889;28;865;-60
2022/06/09 01:22:03;;;;;;;;;;;;;;;13.00;100.00;99058.16;5031050;28;866;-60
2022/06/09 01:24:46;;;;;;;;;;;;;;;12.82;100.00;99068.94;5034493;28;810;-61
2022/06/09 01:27:12;;;;;;;;;;;;;;;12.61;100.00;99073.81;5034420;28;814;-61
2022/06/09 01:29:48;;;;;;;;;;;;;;;12.50;100.00;99064.97;5034318;28;1438;-61
2022/06/09 01:32:25;;;;;;;;;;;;;;;12.46;100.00;99064.28;5034571;28;822;-61
2022/06/09 01:35:04;;;;;;;;;;;;;;;12.38;100.00;99068.44;5034191;28;1910;-61
2022/06/09 01:37:42;;;;;;;;;;;;;;;12.33;100.00;99080.03;5034242;28;830;-61
2022/06/09 01:40:12;;;;;;;;;;;;;;;12.25;100.00;99076.66;5034176;28;889;-60
2022/06/09 01:42:41;;;;;;;;;;;;;;;12.21;100.00;99076.75;5034084;28;859;-60
2022/06/09 01:45:11;;;;;;;;;;;;;;;12.22;100.00;99072.75;5033989;28;916;-60
2022/06/09 01:47:44;;;;;;;;;;;;;;;12.31;100.00;99072.16;5034207;28;874;-61
2022/06/09 01:50:14;;;;;;;;;;;;;;;12.45;100.00;99076.59;5034013;28;803;-61
2022/06/09 01:52:42;;;;;;;;;;;;;;;12.37;100.00;99084.28;5033898;28;842;-61
2022/06/09 01:55:12;;;;;;;;;;;;;;;12.26;100.00;99076.22;5034135;28;1951;-61
2022/06/09 01:57:41;;;;;;;;;;;;;;;12.20;100.00;99075.16;5033833;28;806;-62
2022/06/09 02:00:12;;;;;;;;;;;;;;;12.23;100.00;99079.09;5033688;28;865;-62
2022/06/09 02:02:58;;;;;;;;;;;;;;;12.16;100.00;99082.81;5033710;28;823;-62
2022/06/09 02:05:27;;;;;;;;;;;;;;;12.13;100.00;99085.66;5019728;28;1116;-62
2022/06/09 02:07:55;;;;;;;;;;;;;;;12.09;100.00;99085.72;5033585;28;996;-63
2022/06/09 02:10:33;;;;;;;;;;;;;;;12.07;100.00;99081.81;5033597;28;866;-63
2022/06/09 02:13:02;;;;;;;;;;;;;;;12.08;100.00;99075.06;5033611;28;889;-62
2022/06/09 02:15:34;;;;;;;;;;;;;;;12.11;100.00;99076.97;5033377;28;1949;-62
2022/06/09 02:18:04;;;;;;;;;;;;;;;12.11;100.00;99074.22;5033465;28;921;-62
2022/06/09 02:20:31;;;;;;;;;;;;;;;12.11;100.00;99079.75;5033690;28;822;-62
2022/06/09 02:22:58;;;;;;;;;;;;;;;12.12;100.00;99075.75;5033947;28;824;-62
2022/06/09 02:25:24;;;;;;;;;;;;;;;12.19;100.00;99068.06;5033923;28;779;-62
2022/06/09 02:27:51;;;;;;;;;;;;;;;12.32;100.00;99059.88;5033218;28;916;-63
2022/06/09 02:30:17;;;;;;;;;;;;;;;12.49;100.00;99055.09;5032967;28;1242;-62
2022/06/09 02:32:45;;;;;;;;;;;;;;;12.74;100.00;99050.91;5033097;28;921;-62
2022/06/09 02:35:11;;;;;;;;;;;;;;;12.96;100.00;99062.25;5032241;28;1910;-62
2022/06/09 02:37:38;;;;;;;;;;;;;;;13.06;100.00;99058.41;5033046;28;831;-62
2022/06/09 02:40:05;;;;;;;;;;;;;;;13.14;100.00;99065.28;5033041;28;826;-62
2022/06/09 02:42:32;;;;;;;;;;;;;;;13.20;100.00;99066.31;5032986;28;811;-62
2022/06/09 02:44:58;;;;;;;;;;;;;;;13.25;100.00;99063.03;5032869;28;859;-62
2022/06/09 02:47:25;;;;;;;;;;;;;;;13.31;100.00;99057.72;5032877;28;938;-62
2022/06/09 02:49:52;;;;;;;;;;;;;;;13.37;100.00;99057.97;5032762;28;866;-62
2022/06/09 02:52:19;;;;;;;;;;;;;;;13.48;100.00;99066.78;5032848;28;823;-62
2022/06/09 02:54:45;;;;;;;;;;;;;;;13.55;100.00;99060.25;5032681;28;1886;-62
2022/06/09 02:57:12;;;;;;;;;;;;;;;13.58;100.00;99062.91;5032705;28;898;-62
2022/06/09 02:59:39;;;;;;;;;;;;;;;13.61;100.00;99053.72;5032626;28;874;-62
2022/06/09 03:02:05;;;;;;;;;;;;;;;13.67;100.00;99051.16;5032585;28;849;-62
2022/06/09 03:04:32;;;;;;;;;;;;;;;13.72;100.00;99047.84;5032508;28;843;-62
2022/06/09 03:06:59;;;;;;;;;;;;;;;13.82;100.00;99043.19;5032501;28;830;-62
2022/06/09 03:09:25;;;;;;;;;;;;;;;13.94;100.00;99047.22;5032484;28;866;-62
2022/06/09 03:11:52;;;;;;;;;;;;;;;14.03;100.00;99042.53;5014632;28;1285;-62
2022/06/09 03:14:19;;;;;;;;;;;;;;;14.14;100.00;99042.19;5014736;28;1882;-62
2022/06/09 03:16:46;;;;;;;;;;;;;;;14.24;100.00;99041.06;5032289;28;815;-62
2022/06/09 03:19:13;;;;;;;;;;;;;;;14.32;100.00;99041.63;5032347;28;851;-62
2022/06/09 03:21:39;;;;;;;;;;;;;;;14.46;100.00;99051.50;5032219;28;799;-62
2022/06/09 03:24:06;;;;;;;;;;;;;;;14.59;100.00;99046.72;5032276;28;822;-62
2022/06/09 03:26:33;;;;;;;;;;;;;;;14.71;100.00;99045.16;5032118;28;865;-62
2022/06/09 03:28:59;;;;;;;;;;;;;;;14.81;100.00;99049.56;5032067;28;1033;-62
2022/06/09 03:31:26;;;;;;;;;;;;;;;14.93;100.00;99044.41;5031871;28;1359;-62
2022/06/09 03:33:53;;;;;;;;;;;;;;;15.01;100.00;99042.94;5032023;28;1910;-62
2022/06/09 03:36:20;;;;;;;;;;;;;;;15.07;100.00;99044.69;5031993;28;811;-62
2022/06/09 03:38:47;;;;;;;;;;;;;;;15.12;100.00;99037.75;5032005;28;933;-62
2022/06/09 03:41:13;;;;;;;;;;;;;;;15.15;100.00;99039.66;5031911;28;843;-62
2022/06/09 03:43:40;;;;;;;;;;;;;;;15.17;100.00;99034.41;5031934;28;834;-62
2022/06/09 03:46:07;;;;;;;;;;;;;;;15.17;100.00;99031.63;5031679;28;847;-62
2022/06/09 03:48:34;;;;;;;;;;;;;;;15.16;100.00;99027.28;5031869;28;921;-62
2022/06/09 03:51:01;;;;;;;;;;;;;;;15.19;100.00;99023.59;5031867;28;855;-61
2022/06/09 03:53:28;;;;;;;;;;;;;;;15.13;100.00;99019.84;5031804;28;1894;-62
2022/06/09 03:55:56;;;;;;;;;;;;;;;14.97;100.00;99028.38;5031723;28;827;-62
2022/06/09 03:58:23;;;;;;;;;;;;;;;14.79;100.00;99027.00;5031725;28;873;-61
2022/06/09 04:00:50;;;;;;;;;;;;;;;14.73;100.00;99028.78;5031643;28;897;-61
2022/06/09 04:03:16;;;;;;;;;;;;;;;14.76;100.00;99027.09;5031653;28;874;-62
2022/06/09 04:05:43;;;;;;;;;;;;;;;14.92;100.00;99020.59;5031599;28;850;-61
2022/06/09 04:08:11;;;;;;;;;;;;;;;15.17;100.00;99031.63;5031611;28;823;-61
2022/06/09 04:10:37;;;;;;;;;;;;;;;15.42;100.00;99029.94;5031566;28;862;-62
2022/06/09 04:13:03;;;;;;;;;;;;;;;15.69;100.00;99027.31;5031526;28;926;-61
2022/06/09 04:15:30;;;;;;;;;;;;;;;16.01;100.00;99019.75;5031279;28;1894;-62
2022/06/09 04:17:57;;;;;;;;;;;;;;;16.28;100.00;99012.69;5031464;28;893;-61
2022/06/09 04:20:25;;;;;;;;;;;;;;;16.53;100.00;99017.25;5031414;28;858;-61
2022/06/09 04:22:52;;;;;;;;;;;;;;;16.76;100.00;99015.13;5031731;28;913;-62
2022/06/09 04:25:19;;;;;;;;;;;;;;;16.91;100.00;99011.25;5031329;28;916;-62
2022/06/09 04:27:46;;;;;;;;;;;;;;;17.17;100.00;99019.31;5031296;28;996;-62
2022/06/09 04:30:13;;;;;;;;;;;;;;;17.54;100.00;99016.47;5031057;28;1418;-62
2022/06/09 04:32:39;;;;;;;;;;;;;;;17.80;100.00;99011.28;5031478;28;827;-62
2022/06/09 04:35:07;;;;;;;;;;;;;;;18.11;100.00;99019.38;5031527;28;1910;-61
2022/06/09 04:38:20;;;;;;;;;;;;;;;18.14;100.00;99024.06;5031271;28;886;-62
2022/06/09 04:40:20;;;;;;;;;;;;;;;18.10;100.00;99017.84;5020421;28;1698;-62
2022/06/09 04:42:47;;;;;;;;;;;;;;;18.09;100.00;99021.91;5031287;28;827;-61
2022/06/09 04:45:14;;;;;;;;;;;;;;;18.04;100.00;99030.16;5013366;28;1354;-62
2022/06/09 04:47:40;;;;;;;;;;;;;;;17.96;100.00;99029.72;5031198;28;822;-62
2022/06/09 04:50:07;;;;;;;;;;;;;;;17.98;100.00;99032.03;5031190;28;873;-62
2022/06/09 04:52:34;;;;;;;;;;;;;;;18.00;100.00;99026.75;5031143;28;953;-62
2022/06/09 04:54:59;;;;;;;;;;;;;;;18.06;100.00;99034.03;5031055;28;1943;-62
2022/06/09 04:57:26;;;;;;;;;;;;;;;18.14;100.00;99026.84;5032192;28;882;-61
2022/06/09 04:59:53;;;;;;;;;;;;;;;18.31;100.00;99021.63;5034860;28;826;-61
2022/06/09 05:02:20;;;;;;;;;;;;;;;18.54;100.00;99033.31;5017111;28;1161;-63
2022/06/09 05:04:46;;;;;;;;;;;;;;;18.92;100.00;99029.03;5034780;28;843;-62
2022/06/09 05:07:13;;;;;;;;;;;;;;;19.65;100.00;99036.00;5034796;28;889;-62
2022/06/09 05:09:39;;;;;;;;;;;;;;;20.15;100.00;99047.28;5034765;28;822;-63
2022/06/09 05:12:06;;;;;;;;;;;;;;;20.39;100.00;99049.91;5034768;28;889;-62
2022/06/09 05:14:33;;;;;;;;;;;;;;;20.66;100.00;99044.44;5016731;28;1882;-61
2022/06/09 05:17:00;;;;;;;;;;;;;;;20.67;100.00;99043.19;5034670;28;795;-61
2022/06/09 05:19:26;;;;;;;;;;;;;;;20.68;100.00;99048.31;5034653;28;913;-62
2022/06/09 05:21:53;;;;;;;;;;;;;;;20.80;100.00;99046.41;5034538;28;850;-62
2022/06/09 05:24:20;;;;;;;;;;;;;;;21.15;98.83;99046.31;5034517;28;818;-62
2022/06/09 05:26:46;;;;;;;;;;;;;;;21.74;93.92;99047.19;5034499;28;862;-62
2022/06/09 05:29:13;;;;;;;;;;;;;;;22.49;94.62;99048.03;5034434;28;1206;-62
2022/06/09 05:31:40;;;;;;;;;;;;;;;23.16;90.06;99055.25;5034411;28;862;-63
2022/06/09 05:34:08;;;;;;;;;;;;;;;23.10;85.53;99060.09;5034305;28;1906;-62
2022/06/09 05:36:35;;;;;;;;;;;;;;;22.84;84.55;99050.47;5034201;28;822;-63
2022/06/09 05:47:21;;;;;;;;;;;;;;;23.59;86.01;99067.13;5034050;28;698;-62
2022/06/09 05:49:48;;;;;;;;;;;;;;;23.85;84.60;99080.25;5034004;28;898;-62
2022/06/09 05:52:16;;;;;;;;;;;;;;;23.72;82.93;99077.16;5034220;28;803;-61
2022/06/09 05:54:42;;;;;;;;;;;;;;;23.84;84.77;99067.47;5016028;28;1886;-60
2022/06/09 05:57:09;;;;;;;;;;;;;;;24.37;82.11;99071.28;5033874;28;808;-61
2022/06/09 05:59:37;;;;;;;;;;;;;;;24.89;80.42;99078.34;5033757;28;825;-63
2022/06/09 06:02:04;;;;;;;;;;;;;;;25.25;77.57;99072.84;5034674;28;933;-63
2022/06/09 06:04:31;;;;;;;;;;;;;;;25.29;76.82;99081.06;5034686;28;796;-63
2022/06/09 06:06:59;;;;;;;;;;;;;;;25.22;77.92;99077.47;5034378;28;826;-63
2022/06/09 06:09:25;;;;;;;;;;;;;;;25.52;78.99;99076.00;5032855;28;788;-63
2022/06/09 06:11:52;;;;;;;;;;;;;;;25.95;74.88;99075.50;5033566;28;1229;-62
2022/06/09 06:14:20;;;;;;;;;;;;;;;26.85;70.38;99078.22;5033764;28;1944;-63
2022/06/09 06:28:57;;;;;;;;;;;;;;;28.30;69.32;99067.41;5033611;28;927;-62
2022/06/09 06:31:24;;;;;;;;;;;;;;;28.69;68.99;99063.06;5033079;28;1241;-63
2022/06/09 06:33:50;;;;;;;;;;;;;;;29.70;63.53;99069.50;5033154;28;1910;-62
2022/06/09 06:36:17;;;;;;;;;;;;;;;30.33;63.53;99066.66;5015301;28;1349;-62
2022/06/09 06:38:43;;;;;;;;;;;;;;;30.90;59.41;99068.75;5015330;28;1306;-62
2022/06/09 06:41:11;;;;;;;;;;;;;;;31.56;58.44;99068.63;5032907;28;835;-65
2022/06/09 06:43:38;;;;;;;;;;;;;;;31.34;58.45;99070.84;5033281;28;811;-64
2022/06/09 06:46:04;;;;;;;;;;;;;;;29.83;62.82;99073.59;5032882;28;786;-62
2022/06/09 06:48:32;;;;;;;;;;;;;;;28.58;68.55;99069.75;5033012;28;827;-62
2022/06/09 06:50:59;;;;;;;;;;;;;;;28.02;72.72;99074.31;5032857;28;882;-62
2022/06/09 06:53:26;;;;;;;;;;;;;;;27.91;68.24;99074.53;5032737;28;1949;-63
2022/06/09 06:55:53;;;;;;;;;;;;;;;28.39;67.19;99055.59;5032997;28;889;-62
2022/06/09 06:58:19;;;;;;;;;;;;;;;28.60;66.18;99066.38;5032657;28;859;-62
2022/06/09 07:00:46;;;;;;;;;;;;;;;29.82;62.37;99064.28;5032710;28;889;-62
2022/06/09 07:03:13;;;;;;;;;;;;;;;30.60;59.31;99075.03;5032633;28;822;-63
2022/06/09 07:05:40;;;;;;;;;;;;;;;29.60;60.06;99073.34;5032567;28;878;-63
2022/06/09 07:08:08;;;;;;;;;;;;;;;29.24;63.12;99073.88;5032485;28;834;-64
2022/06/09 07:10:35;;;;;;;;;;;;;;;27.98;68.53;99073.88;5032379;28;908;-62
2022/06/09 07:13:02;;;;;;;;;;;;;;;29.10;68.89;99081.66;5032559;28;862;-62
2022/06/09 07:15:29;;;;;;;;;;;;;;;30.55;57.15;99073.06;5032285;28;1945;-63
2022/06/09 07:17:54;;;;;;;;;;;;;;;31.32;60.18;99068.56;5032412;28;893;-63
2022/06/09 07:20:21;;;;;;;;;;;;;;;32.01;58.80;99070.09;5031851;28;940;-63
2022/06/09 07:22:48;;;;;;;;;;;;;;;32.35;57.40;99064.75;5032235;28;835;-62
2022/06/09 07:25:15;;;;;;;;;;;;;;;32.94;57.48;99069.41;5032218;28;939;-62
2022/06/09 07:27:42;;;;;;;;;;;;;;;33.53;58.17;99064.59;5032300;28;826;-63
2022/06/09 07:30:09;;;;;;;;;;;;;;;33.10;52.31;99060.81;5032045;28;1332;-63
2022/06/09 07:32:36;;;;;;;;;;;;;;;33.18;52.04;99055.81;5032267;28;907;-62
2022/06/09 07:35:04;;;;;;;;;;;;;;;33.05;52.29;99053.94;5031992;28;1910;-63
2022/06/09 07:37:31;;;;;;;;;;;;;;;32.93;51.59;99052.84;5031991;28;815;-62
2022/06/09 07:39:57;;;;;;;;;;;;;;;33.59;54.24;99050.81;5031993;28;827;-62
2022/06/09 07:42:25;;;;;;;;;;;;;;;34.14;52.54;99052.75;5031865;28;878;-62
2022/06/09 07:44:51;;;;;;;;;;;;;;;34.49;49.09;99052.81;5014175;28;874;-64
2022/06/09 07:47:18;;;;;;;;;;;;;;;33.22;53.84;99046.81;5031818;28;842;-62
2022/06/09 07:49:44;;;;;;;;;;;;;;;33.58;52.50;99042.81;5031866;28;799;-63
2022/06/09 07:52:11;;;;;;;;;;;;;;;33.84;50.10;99035.78;5031737;28;839;-63
2022/06/09 07:54:38;;;;;;;;;;;;;;;32.81;52.28;99037.41;5031659;28;1957;-62
2022/06/09 07:57:04;;;;;;;;;;;;;;;30.68;58.85;99032.28;5031756;28;839;-63
2022/06/09 07:59:32;;;;;;;;;;;;;;;28.23;61.72;99040.41;5031549;28;845;-62
2022/06/09 08:01:59;;;;;;;;;;;;;;;26.78;69.32;99044.03;5031731;28;827;-62
2022/06/09 08:04:25;;;;;;;;;;;;;;;25.83;71.59;99050.06;5013841;28;1473;-62
2022/06/09 08:06:52;;;;;;;;;;;;;;;25.32;74.95;99037.56;5031560;28;807;-62
2022/06/09 08:09:19;;;;;;;;;;;;;;;25.09;74.52;99042.56;5031451;28;883;-62
2022/06/09 08:11:47;;;;;;;;;;;;;;;24.78;74.86;99041.66;5031520;28;875;-61
2022/06/09 08:14:14;;;;;;;;;;;;;;;24.73;75.90;99042.44;5031309;28;1890;-63
2022/06/09 08:16:41;;;;;;;;;;;;;;;24.64;75.53;99052.75;5031830;28;859;-61
2022/06/09 08:19:07;;;;;;;;;;;;;;;24.83;76.65;99035.97;5031528;28;838;-62
2022/06/09 08:21:34;;;;;;;;;;;;;;;26.28;71.95;99035.53;5031402;28;855;-63
2022/06/09 08:24:00;;;;;;;;;;;;;;;28.56;64.22;99038.25;5031483;28;834;-63
2022/06/09 08:26:27;;;;;;;;;;;;;;;28.30;59.58;99048.25;5031418;28;905;-65
2022/06/09 08:28:55;;;;;;;;;;;;;;;28.11;62.81;99044.75;5031719;28;925;-63
2022/06/09 08:31:21;;;;;;;;;;;;;;;29.62;62.53;99047.94;5031112;28;1311;-62
2022/06/09 08:33:51;;;;;;;;;;;;;;;31.24;55.56;99036.38;5034872;28;1910;-64
2022/06/09 08:36:18;;;;;;;;;;;;;;;31.54;57.24;99032.84;5035321;28;866;-62
2022/06/09 08:38:46;;;;;;;;;;;;;;;31.85;55.86;99032.13;5035367;28;858;-62
2022/06/09 08:41:17;;;;;;;;;;;;;;;31.86;53.12;99030.81;5035234;28;819;-63
2022/06/09 08:44:03;;;;;;;;;;;;;;;31.77;58.51;99029.25;5035248;28;811;-62
2022/06/09 08:46:49;;;;;;;;;;;;;;;32.24;57.38;99025.13;5035182;28;902;-62
2022/06/09 08:49:36;;;;;;;;;;;;;;;32.79;56.67;99029.41;5035150;28;875;-63
2022/06/09 08:52:13;;;;;;;;;;;;;;;32.74;54.38;99027.53;5034425;28;1923;-62
2022/06/09 08:54:40;;;;;;;;;;;;;;;32.77;58.04;99020.63;5035052;28;1890;-63
2022/06/09 08:57:12;;;;;;;;;;;;;;;32.27;57.72;99026.81;5034988;28;822;-62
2022/06/09 08:59:41;;;;;;;;;;;;;;;30.65;66.12;99028.47;5034979;28;811;-62
2022/06/09 09:02:20;;;;;;;;;;;;;;;28.97;70.52;99031.22;5035227;28;878;-62
2022/06/09 09:04:49;;;;;;;;;;;;;;;27.44;73.96;99029.53;5035616;28;787;-62
2022/06/09 09:07:25;;;;;;;;;;;;;;;27.22;76.44;99027.78;5034882;28;830;-62
2022/06/09 09:09:55;;;;;;;;;;;;;;;26.71;76.71;99025.56;5034630;28;823;-61
2022/06/09 09:12:40;;;;;;;;;;;;;;;26.07;77.26;99018.25;5034836;28;826;-61
2022/06/09 09:15:13;;;;;;;;;;;;;;;26.76;73.60;99010.56;5034568;28;1882;-62
2022/06/09 09:17:42;;;;;;;;;;;;;;;28.21;67.54;99014.63;5034903;28;827;-63
2022/06/09 09:20:20;;;;;;;;;;;;;;;28.99;60.04;99017.22;5034527;28;831;-64
2022/06/09 09:23:07;;;;;;;;;;;;;;;29.11;64.79;99014.94;5034563;28;815;-62
2022/06/09 09:25:54;;;;;;;;;;;;;;;29.49;61.34;99008.91;5034479;28;955;-62
2022/06/09 09:28:23;;;;;;;;;;;;;;;29.87;62.44;99014.19;5034575;28;901;-64
2022/06/09 09:31:15;;;;;;;;;;;;;;;30.25;61.72;99003.09;5034206;28;1320;-63
2022/06/09 09:33:42;;;;;;;;;;;;;;;30.48;62.40;98994.72;5034240;28;1918;-63
2022/06/09 09:36:18;;;;;;;;;;;;;;;30.40;60.40;98998.84;5034252;28;894;-62
2022/06/09 09:39:08;;;;;;;;;;;;;;;30.24;61.98;98995.88;5034391;28;815;-62
2022/06/09 09:41:38;;;;;;;;;;;;;;;30.19;62.40;98990.31;4997243;28;1195;-63
2022/06/09 09:44:16;;;;;;;;;;;;;;;30.05;60.51;98992.53;5033842;28;849;-63
2022/06/09 09:46:47;;;;;;;;;;;;;;;29.58;57.94;98996.28;5034142;28;818;-62
2022/06/09 09:49:25;;;;;;;;;;;;;;;29.07;61.17;98986.03;5034554;28;831;-63
2022/06/09 09:51:53;;;;;;;;;;;;;;;28.69;62.67;98977.78;5033994;28;853;-62
2022/06/09 09:54:30;;;;;;;;;;;;;;;28.95;67.87;98979.06;5034135;28;1898;-62
2022/06/09 09:57:23;;;;;;;;;;;;;;;29.31;65.99;98979.28;5034115;28;883;-63
2022/06/09 09:59:51;;;;;;;;;;;;;;;28.30;68.87;98977.25;5030767;28;1146;-63
2022/06/09 10:30:51;;;;;;;;;;;;;;;28.47;58.21;98950.56;5282205;22;1693;-63
2022/06/09 10:33:33;;;;;;;;;;;;;;;28.68;58.19;98947.84;5033252;28;818;-62
2022/06/09 10:36:12;;;;;;;;;;;;;;;28.97;61.18;98948.75;5032920;28;916;-62
2022/06/09 10:38:42;;;;;;;;;;;;;;;29.39;56.86;98951.69;5033226;28;822;-62
2022/06/09 10:41:10;;;;;;;;;;;;;;;29.77;58.43;98954.13;5033205;28;798;-63
2022/06/09 10:43:36;;;;;;;;;;;;;;;30.33;57.48;98946.19;5033108;28;830;-62
2022/06/09 10:46:19;;;;;;;;;;;;;;;30.80;52.99;98942.22;5032944;28;871;-63
2022/06/09 10:57:45;;;;;;;;;;;;;;;29.40;58.02;98938.19;5032865;28;712;-62
2022/06/09 11:00:31;;;;;;;;;;;;;;;30.45;54.14;98923.81;5032685;28;901;-62
2022/06/09 11:03:00;;;;;;;;;;;;;;;31.02;52.28;98915.09;5032732;28;810;-62
2022/06/09 11:05:48;;;;;;;;;;;;;;;31.45;50.65;98916.38;5032512;28;968;-63
2022/06/09 11:08:26;;;;;;;;;;;;;;;31.53;49.12;98908.53;5032620;28;1735;-62
2022/06/09 11:11:06;;;;;;;;;;;;;;;31.86;49.20;98917.28;5014882;28;866;-62
2022/06/09 11:13:59;;;;;;;;;;;;;;;31.87;47.33;98909.47;5032344;28;1890;-62
2022/06/09 11:16:40;;;;;;;;;;;;;;;31.80;47.29;98901.69;5002192;28;1212;-60
2022/06/09 11:19:26;;;;;;;;;;;;;;;32.11;49.00;98890.97;5032437;28;881;-61
2022/06/09 11:22:14;;;;;;;;;;;;;;;31.79;47.42;98900.91;5032304;28;1054;-62
2022/06/09 11:27:50;;;;;;;;;;;;;;;32.11;47.41;98893.84;5032324;28;673;-62
2022/06/09 11:30:24;;;;;;;;;;;;;;;32.17;47.15;98896.50;5032085;28;1225;-62
2022/06/09 11:33:10;;;;;;;;;;;;;;;31.80;46.10;98895.97;5014774;28;905;-62
2022/06/09 11:35:46;;;;;;;;;;;;;;;31.71;47.34;98900.19;5032050;28;1931;-62
2022/06/09 11:38:20;;;;;;;;;;;;;;;31.84;46.56;98894.25;5032081;28;873;-62
2022/06/09 11:40:52;;;;;;;;;;;;;;;31.93;46.05;98892.91;5031959;28;1059;-62
2022/06/09 11:43:36;;;;;;;;;;;;;;;31.70;45.68;98887.97;5032037;28;877;-62
2022/06/09 11:46:07;;;;;;;;;;;;;;;32.23;45.17;98889.22;5031916;28;890;-61
2022/06/09 11:48:48;;;;;;;;;;;;;;;32.91;44.50;98886.69;5032262;28;775;-62
2022/06/09 11:51:20;;;;;;;;;;;;;;;33.82;42.96;98890.22;5031825;28;794;-62
2022/06/09 11:53:49;;;;;;;;;;;;;;;33.79;41.81;98879.94;5031788;28;1954;-62
2022/06/09 11:56:44;;;;;;;;;;;;;;;33.52;43.07;98871.16;5031931;28;814;-61
2022/06/09 11:59:22;;;;;;;;;;;;;;;31.78;46.48;98872.94;5031667;28;946;-61
2022/06/09 12:02:08;;;;;;;;;;;;;;;31.09;48.62;98874.44;5031571;28;835;-61
2022/06/09 12:04:53;;;;;;;;;;;;;;;32.42;47.31;98868.03;5031513;28;919;-61
2022/06/09 12:07:25;;;;;;;;;;;;;;;34.20;45.42;98871.88;5031623;28;839;-63
2022/06/09 12:10:10;;;;;;;;;;;;;;;35.15;42.19;98863.75;5031619;28;842;-62
2022/06/09 12:12:39;;;;;;;;;;;;;;;35.12;40.95;98862.06;5031558;28;834;-62
2022/06/09 12:15:18;;;;;;;;;;;;;;;35.43;42.29;98860.84;5031488;28;1874;-61
2022/06/09 12:17:56;;;;;;;;;;;;;;;36.12;40.48;98871.09;5031622;28;867;-62
2022/06/09 12:20:57;;;;;;;;;;;;;;;34.38;41.20;98866.91;5031374;28;854;-61
2022/06/09 12:23:30;;;;;;;;;;;;;;;32.66;43.86;98878.03;5031562;28;878;-61
2022/06/09 12:26:08;;;;;;;;;;;;;;;31.49;46.38;98885.34;5031399;28;857;-61
2022/06/09 12:28:50;;;;;;;;;;;;;;;31.94;46.07;98883.75;5031524;28;802;-61
2022/06/09 12:31:18;;;;;;;;;;;;;;;32.79;45.86;98886.34;5031365;28;1241;-61
2022/06/09 12:33:55;;;;;;;;;;;;;;;33.79;44.37;98893.50;5031660;28;1914;-62
2022/06/09 12:36:41;;;;;;;;;;;;;;;34.36;41.51;98901.91;5013657;28;1209;-62
2022/06/09 12:39:21;;;;;;;;;;;;;;;33.69;42.73;98904.84;5031203;28;1124;-61
2022/06/09 12:41:52;;;;;;;;;;;;;;;32.11;47.77;98900.34;5031393;28;846;-61
2022/06/09 12:44:27;;;;;;;;;;;;;;;30.79;48.10;98903.63;5031329;28;822;-61
2022/06/09 12:46:55;;;;;;;;;;;;;;;29.83;50.18;98903.50;5031205;28;901;-61
2022/06/09 12:49:29;;;;;;;;;;;;;;;29.00;52.30;98909.91;5031503;28;862;-61
2022/06/09 12:51:56;;;;;;;;;;;;;;;27.62;55.79;98914.44;5031522;28;839;-60
2022/06/09 12:54:28;;;;;;;;;;;;;;;27.16;58.37;98910.78;5031351;28;1910;-61
2022/06/09 12:57:13;;;;;;;;;;;;;;;26.94;58.86;98903.38;5031238;28;807;-60
2022/06/09 12:59:41;;;;;;;;;;;;;;;28.03;57.89;98908.28;5031191;28;838;-60
2022/06/09 13:02:10;;;;;;;;;;;;;;;29.46;53.80;98899.75;5031040;28;792;-60
2022/06/09 13:04:42;;;;;;;;;;;;;;;28.90;55.08;98903.94;5031208;28;798;-61
2022/06/09 13:07:28;;;;;;;;;;;;;;;27.99;58.61;98895.72;5031118;28;873;-60
2022/06/09 13:10:13;;;;;;;;;;;;;;;28.04;56.31;98892.78;5029693;28;1055;-61
2022/06/09 13:12:52;;;;;;;;;;;;;;;27.99;58.90;98898.56;5030979;28;846;-61
2022/06/09 13:15:37;;;;;;;;;;;;;;;29.01;54.91;98897.97;5013214;28;1894;-61
2022/06/09 13:18:18;;;;;;;;;;;;;;;30.71;51.20;98889.34;5031442;28;873;-62
2022/06/09 13:20:56;;;;;;;;;;;;;;;32.13;50.43;98889.09;5034604;28;873;-62
2022/06/09 13:23:24;;;;;;;;;;;;;;;33.17;46.27;98890.34;5034537;28;801;-62
2022/06/09 13:25:50;;;;;;;;;;;;;;;33.08;44.76;98891.75;5034689;28;823;-61
2022/06/09 13:28:37;;;;;;;;;;;;;;;33.22;46.26;98892.97;5034508;28;814;-62
2022/06/09 13:31:06;;;;;;;;;;;;;;;33.18;46.17;98891.88;5034085;28;1312;-62
2022/06/09 13:33:34;;;;;;;;;;;;;;;33.10;46.11;98897.66;5034390;28;843;-63
2022/06/09 13:36:18;;;;;;;;;;;;;;;33.07;45.47;98899.56;5034370;28;1942;-62
2022/06/09 13:38:45;;;;;;;;;;;;;;;32.31;45.33;98889.97;5034297;28;787;-62
2022/06/09 13:41:25;;;;;;;;;;;;;;;31.18;49.17;98878.81;5034269;28;886;-61
2022/06/09 13:43:54;;;;;;;;;;;;;;;30.42;50.25;98873.63;5034177;28;874;-62
2022/06/09 13:46:21;;;;;;;;;;;;;;;29.57;51.96;98878.00;5034370;28;834;-61
2022/06/09 13:48:54;;;;;;;;;;;;;;;28.99;54.57;98875.00;5034150;28;802;-62
2022/06/09 13:51:26;;;;;;;;;;;;;;;28.81;54.89;98873.88;5034053;28;814;-61
2022/06/09 13:54:08;;;;;;;;;;;;;;;28.26;56.44;98874.53;5034120;28;1890;-61
2022/06/09 13:56:35;;;;;;;;;;;;;;;27.67;59.35;98879.50;5033963;28;893;-61
2022/06/09 13:59:02;;;;;;;;;;;;;;;27.13;59.68;98872.16;5033814;28;898;-61
2022/06/09 14:01:29;;;;;;;;;;;;;;;26.91;61.32;98876.88;5033806;28;815;-61
2022/06/09 14:03:59;;;;;;;;;;;;;;;27.08;59.68;98868.13;5033698;28;877;-62
2022/06/09 14:06:27;;;;;;;;;;;;;;;27.46;58.14;98865.97;5033843;28;866;-61
2022/06/09 14:08:55;;;;;;;;;;;;;;;28.17;58.42;98857.19;5033684;28;886;-61
2022/06/09 14:11:24;;;;;;;;;;;;;;;28.61;54.14;98846.16;5033670;28;806;-63
2022/06/09 14:13:53;;;;;;;;;;;;;;;28.77;55.55;98847.09;5034147;28;1953;-61
2022/06/09 14:16:22;;;;;;;;;;;;;;;28.75;55.21;98835.53;5033876;28;818;-61
2022/06/09 14:18:48;;;;;;;;;;;;;;;28.67;54.81;98849.66;5033512;28;885;-62